sensor_id;sensor_type;location;lat;lon;timestamp;P1;durP1;ratioP1;P2;durP2;ratioP2
19049;SDS011;9657;45.940;12.840;2023-09-08T00:00:56;6.38;;;5.78;;
19049;SDS011;9657;45.940;12.840;2023-09-08T00:03:23;6.85;;;5.65;;
19049;SDS011;9657;45.940;12.840;2023-09-08T00:05:50;6.93;;;6.22;;
19049;SDS011;9657;45.940;12.840;2023-09-08T00:08:17;7.38;;;6.10;;
19049;SDS011;9657;45.940;12.840;2023-09-08T00:10:45;7.00;;;5.45;;
19049;SDS011;9657;45.940;12.840;2023-09-08T00:13:12;6.07;;;5.45;;
19049;SDS011;9657;45.940;12.840;2023-09-08T00:15:40;7.13;;;5.53;;
19049;SDS011;9657;45.940;12.840;2023-09-08T00:18:07;7.22;;;5.72;;
19049;SDS011;9657;45.940;12.840;2023-09-08T00:20:34;6.85;;;6.20;;
19049;SDS011;9657;45.940;12.840;2023-09-08T00:23:01;6.45;;;5.63;;
19049;SDS011;9657;45.940;12.840;2023-09-08T00:25:28;6.50;;;5.53;;
19049;SDS011;9657;45.940;12.840;2023-09-08T00:27:56;6.63;;;5.90;;
19049;SDS011;9657;45.940;12.840;2023-09-08T00:30:23;5.68;;;5.18;;
19049;SDS011;9657;45.940;12.840;2023-09-08T00:32:50;6.03;;;5.50;;
19049;SDS011;9657;45.940;12.840;2023-09-08T00:35:17;6.22;;;4.80;;
19049;SDS011;9657;45.940;12.840;2023-09-08T00:37:45;5.75;;;5.15;;
19049;SDS011;9657;45.940;12.840;2023-09-08T00:40:12;6.18;;;5.43;;
19049;SDS011;9657;45.940;12.840;2023-09-08T00:42:39;8.43;;;5.20;;
19049;SDS011;9657;45.940;12.840;2023-09-08T00:45:07;10.75;;;5.80;;
19049;SDS011;9657;45.940;12.840;2023-09-08T00:47:35;6.00;;;5.45;;
19049;SDS011;9657;45.940;12.840;2023-09-08T00:50:02;6.10;;;5.50;;
19049;SDS011;9657;45.940;12.840;2023-09-08T00:52:30;6.95;;;5.43;;
19049;SDS011;9657;45.940;12.840;2023-09-08T00:54:59;6.38;;;5.28;;
19049;SDS011;9657;45.940;12.840;2023-09-08T00:57:26;6.45;;;5.25;;
19049;SDS011;9657;45.940;12.840;2023-09-08T00:59:53;5.93;;;5.32;;
19049;SDS011;9657;45.940;12.840;2023-09-08T01:04:55;9.18;;;6.05;;
19049;SDS011;9657;45.940;12.840;2023-09-08T01:07:24;6.25;;;5.15;;
19049;SDS011;9657;45.940;12.840;2023-09-08T01:09:54;6.28;;;5.38;;
19049;SDS011;9657;45.940;12.840;2023-09-08T01:12:22;6.28;;;5.38;;
19049;SDS011;9657;45.940;12.840;2023-09-08T01:14:49;6.53;;;5.53;;
19049;SDS011;9657;45.940;12.840;2023-09-08T01:17:16;5.18;;;4.68;;
19049;SDS011;9657;45.940;12.840;2023-09-08T01:19:43;6.88;;;5.40;;
19049;SDS011;9657;45.940;12.840;2023-09-08T01:25:19;5.32;;;4.82;;
19049;SDS011;9657;45.940;12.840;2023-09-08T01:27:48;5.47;;;4.90;;
19049;SDS011;9657;45.940;12.840;2023-09-08T01:30:18;6.35;;;5.47;;
19049;SDS011;9657;45.940;12.840;2023-09-08T01:32:46;5.32;;;4.82;;
19049;SDS011;9657;45.940;12.840;2023-09-08T01:35:14;5.43;;;4.88;;
19049;SDS011;9657;45.940;12.840;2023-09-08T01:37:42;6.50;;;4.35;;
19049;SDS011;9657;45.940;12.840;2023-09-08T01:40:11;5.28;;;4.78;;
19049;SDS011;9657;45.940;12.840;2023-09-08T01:42:40;5.38;;;4.90;;
19049;SDS011;9657;45.940;12.840;2023-09-08T01:45:08;5.07;;;4.65;;
19049;SDS011;9657;45.940;12.840;2023-09-08T01:47:35;5.30;;;4.80;;
19049;SDS011;9657;45.940;12.840;2023-09-08T01:50:03;5.72;;;4.82;;
19049;SDS011;9657;45.940;12.840;2023-09-08T01:52:31;5.32;;;4.68;;
19049;SDS011;9657;45.940;12.840;2023-09-08T01:54:58;5.18;;;4.68;;
19049;SDS011;9657;45.940;12.840;2023-09-08T01:57:25;5.55;;;4.65;;
19049;SDS011;9657;45.940;12.840;2023-09-08T01:59:53;5.78;;;4.10;;
19049;SDS011;9657;45.940;12.840;2023-09-08T02:02:20;6.03;;;4.57;;
19049;SDS011;9657;45.940;12.840;2023-09-08T02:04:47;5.32;;;4.25;;
19049;SDS011;9657;45.940;12.840;2023-09-08T02:07:14;5.32;;;4.63;;
19049;SDS011;9657;45.940;12.840;2023-09-08T02:09:41;5.32;;;4.57;;
19049;SDS011;9657;45.940;12.840;2023-09-08T02:12:08;6.32;;;4.60;;
19049;SDS011;9657;45.940;12.840;2023-09-08T02:14:35;5.25;;;4.75;;
19049;SDS011;9657;45.940;12.840;2023-09-08T02:17:04;5.07;;;4.57;;
19049;SDS011;9657;45.940;12.840;2023-09-08T02:19:32;6.85;;;4.30;;
19049;SDS011;9657;45.940;12.840;2023-09-08T02:21:59;4.82;;;4.43;;
19049;SDS011;9657;45.940;12.840;2023-09-08T02:24:26;4.88;;;4.40;;
19049;SDS011;9657;45.940;12.840;2023-09-08T02:26:53;4.82;;;4.38;;
19049;SDS011;9657;45.940;12.840;2023-09-08T02:29:21;4.90;;;4.40;;
19049;SDS011;9657;45.940;12.840;2023-09-08T02:31:48;5.07;;;4.57;;
19049;SDS011;9657;45.940;12.840;2023-09-08T02:34:17;4.47;;;4.00;;
19049;SDS011;9657;45.940;12.840;2023-09-08T02:36:44;4.90;;;4.40;;
19049;SDS011;9657;45.940;12.840;2023-09-08T02:39:12;4.35;;;3.95;;
19049;SDS011;9657;45.940;12.840;2023-09-08T02:41:39;4.97;;;4.47;;
19049;SDS011;9657;45.940;12.840;2023-09-08T02:44:06;4.40;;;4.05;;
19049;SDS011;9657;45.940;12.840;2023-09-08T02:46:33;5.10;;;4.57;;
19049;SDS011;9657;45.940;12.840;2023-09-08T02:49:01;4.65;;;4.07;;
19049;SDS011;9657;45.940;12.840;2023-09-08T02:51:29;4.47;;;4.10;;
19049;SDS011;9657;45.940;12.840;2023-09-08T02:53:56;4.68;;;4.28;;
19049;SDS011;9657;45.940;12.840;2023-09-08T02:56:23;4.90;;;4.10;;
19049;SDS011;9657;45.940;12.840;2023-09-08T02:58:50;4.90;;;4.50;;
19049;SDS011;9657;45.940;12.840;2023-09-08T03:01:17;6.28;;;4.72;;
19049;SDS011;9657;45.940;12.840;2023-09-08T03:03:45;5.70;;;4.47;;
19049;SDS011;9657;45.940;12.840;2023-09-08T03:06:13;5.00;;;4.50;;
19049;SDS011;9657;45.940;12.840;2023-09-08T03:08:42;4.30;;;3.90;;
19049;SDS011;9657;45.940;12.840;2023-09-08T03:11:09;4.55;;;4.13;;
19049;SDS011;9657;45.940;12.840;2023-09-08T03:13:36;4.32;;;3.92;;
19049;SDS011;9657;45.940;12.840;2023-09-08T03:16:04;4.70;;;4.30;;
19049;SDS011;9657;45.940;12.840;2023-09-08T03:18:32;5.00;;;4.50;;
19049;SDS011;9657;45.940;12.840;2023-09-08T03:21:01;4.28;;;3.92;;
19049;SDS011;9657;45.940;12.840;2023-09-08T03:23:34;5.90;;;4.47;;
19049;SDS011;9657;45.940;12.840;2023-09-08T03:26:02;4.35;;;3.95;;
19049;SDS011;9657;45.940;12.840;2023-09-08T03:28:30;4.43;;;4.03;;
19049;SDS011;9657;45.940;12.840;2023-09-08T03:30:58;4.28;;;3.90;;
19049;SDS011;9657;45.940;12.840;2023-09-08T03:33:25;6.43;;;4.78;;
19049;SDS011;9657;45.940;12.840;2023-09-08T03:35:52;5.05;;;4.55;;
19049;SDS011;9657;45.940;12.840;2023-09-08T03:38:20;5.38;;;4.65;;
19049;SDS011;9657;45.940;12.840;2023-09-08T03:40:47;5.55;;;4.55;;
19049;SDS011;9657;45.940;12.840;2023-09-08T03:43:16;4.55;;;4.15;;
19049;SDS011;9657;45.940;12.840;2023-09-08T03:45:43;5.78;;;4.20;;
19049;SDS011;9657;45.940;12.840;2023-09-08T03:48:10;5.50;;;4.72;;
19049;SDS011;9657;45.940;12.840;2023-09-08T03:50:37;6.25;;;4.47;;
19049;SDS011;9657;45.940;12.840;2023-09-08T03:53:04;4.90;;;4.40;;
19049;SDS011;9657;45.940;12.840;2023-09-08T03:55:31;4.60;;;4.10;;
19049;SDS011;9657;45.940;12.840;2023-09-08T03:57:58;5.35;;;4.53;;
19049;SDS011;9657;45.940;12.840;2023-09-08T04:00:27;4.53;;;4.13;;
19049;SDS011;9657;45.940;12.840;2023-09-08T04:02:54;4.75;;;4.15;;
19049;SDS011;9657;45.940;12.840;2023-09-08T04:05:22;6.43;;;4.15;;
19049;SDS011;9657;45.940;12.840;2023-09-08T04:07:49;4.20;;;3.80;;
19049;SDS011;9657;45.940;12.840;2023-09-08T04:10:16;5.07;;;4.57;;
19049;SDS011;9657;45.940;12.840;2023-09-08T04:12:43;4.63;;;4.22;;
19049;SDS011;9657;45.940;12.840;2023-09-08T04:15:10;5.00;;;4.40;;
19049;SDS011;9657;45.940;12.840;2023-09-08T04:17:38;4.13;;;3.72;;
19049;SDS011;9657;45.940;12.840;2023-09-08T04:20:06;5.03;;;4.50;;
19049;SDS011;9657;45.940;12.840;2023-09-08T04:22:34;5.38;;;4.50;;
19049;SDS011;9657;45.940;12.840;2023-09-08T04:25:01;4.65;;;4.25;;
19049;SDS011;9657;45.940;12.840;2023-09-08T04:27:30;4.68;;;4.25;;
19049;SDS011;9657;45.940;12.840;2023-09-08T04:29:58;4.25;;;3.85;;
19049;SDS011;9657;45.940;12.840;2023-09-08T04:32:25;4.90;;;4.40;;
19049;SDS011;9657;45.940;12.840;2023-09-08T04:34:53;4.78;;;4.28;;
19049;SDS011;9657;45.940;12.840;2023-09-08T04:37:20;4.38;;;3.97;;
19049;SDS011;9657;45.940;12.840;2023-09-08T04:39:47;6.80;;;4.68;;
19049;SDS011;9657;45.940;12.840;2023-09-08T04:42:14;3.67;;;3.38;;
19049;SDS011;9657;45.940;12.840;2023-09-08T04:44:42;4.47;;;4.10;;
19049;SDS011;9657;45.940;12.840;2023-09-08T04:47:09;5.28;;;4.78;;
19049;SDS011;9657;45.940;12.840;2023-09-08T04:49:36;4.80;;;4.30;;
19049;SDS011;9657;45.940;12.840;2023-09-08T04:52:05;4.80;;;3.78;;
19049;SDS011;9657;45.940;12.840;2023-09-08T04:54:32;5.15;;;4.10;;
19049;SDS011;9657;45.940;12.840;2023-09-08T04:56:59;4.50;;;4.10;;
19049;SDS011;9657;45.940;12.840;2023-09-08T04:59:27;5.35;;;4.18;;
19049;SDS011;9657;45.940;12.840;2023-09-08T05:01:54;4.63;;;4.22;;
19049;SDS011;9657;45.940;12.840;2023-09-08T05:04:21;5.05;;;4.55;;
19049;SDS011;9657;45.940;12.840;2023-09-08T05:06:48;5.30;;;4.45;;
19049;SDS011;9657;45.940;12.840;2023-09-08T05:09:17;5.88;;;4.22;;
19049;SDS011;9657;45.940;12.840;2023-09-08T05:11:44;4.50;;;4.07;;
19049;SDS011;9657;45.940;12.840;2023-09-08T05:14:11;4.95;;;3.97;;
19049;SDS011;9657;45.940;12.840;2023-09-08T05:16:38;4.63;;;4.15;;
19049;SDS011;9657;45.940;12.840;2023-09-08T05:19:11;5.00;;;4.50;;
19049;SDS011;9657;45.940;12.840;2023-09-08T05:21:38;4.57;;;3.70;;
19049;SDS011;9657;45.940;12.840;2023-09-08T05:24:06;4.57;;;4.18;;
19049;SDS011;9657;45.940;12.840;2023-09-08T05:26:36;4.55;;;4.15;;
19049;SDS011;9657;45.940;12.840;2023-09-08T05:29:03;6.03;;;4.60;;
19049;SDS011;9657;45.940;12.840;2023-09-08T05:31:30;6.53;;;4.43;;
19049;SDS011;9657;45.940;12.840;2023-09-08T05:33:57;5.78;;;4.28;;
19049;SDS011;9657;45.940;12.840;2023-09-08T05:36:24;5.25;;;4.63;;
19049;SDS011;9657;45.940;12.840;2023-09-08T05:38:51;4.60;;;4.20;;
19049;SDS011;9657;45.940;12.840;2023-09-08T05:41:18;8.15;;;4.30;;
19049;SDS011;9657;45.940;12.840;2023-09-08T05:43:47;5.63;;;4.20;;
19049;SDS011;9657;45.940;12.840;2023-09-08T05:46:14;5.55;;;4.57;;
19049;SDS011;9657;45.940;12.840;2023-09-08T05:48:42;4.72;;;4.28;;
19049;SDS011;9657;45.940;12.840;2023-09-08T05:51:09;6.55;;;4.72;;
19049;SDS011;9657;45.940;12.840;2023-09-08T05:53:36;5.57;;;4.22;;
19049;SDS011;9657;45.940;12.840;2023-09-08T05:56:05;4.20;;;3.80;;
19049;SDS011;9657;45.940;12.840;2023-09-08T05:58:32;6.05;;;4.07;;
19049;SDS011;9657;45.940;12.840;2023-09-08T06:01:00;5.03;;;4.13;;
19049;SDS011;9657;45.940;12.840;2023-09-08T06:03:28;6.22;;;4.47;;
19049;SDS011;9657;45.940;12.840;2023-09-08T06:05:55;5.60;;;4.95;;
19049;SDS011;9657;45.940;12.840;2023-09-08T06:08:23;5.47;;;4.45;;
19049;SDS011;9657;45.940;12.840;2023-09-08T06:10:50;5.80;;;4.30;;
19049;SDS011;9657;45.940;12.840;2023-09-08T06:13:17;6.68;;;4.70;;
19049;SDS011;9657;45.940;12.840;2023-09-08T06:15:44;5.57;;;4.47;;
19049;SDS011;9657;45.940;12.840;2023-09-08T06:18:12;4.85;;;4.13;;
19049;SDS011;9657;45.940;12.840;2023-09-08T06:20:43;4.88;;;4.28;;
19049;SDS011;9657;45.940;12.840;2023-09-08T06:23:11;5.00;;;4.28;;
19049;SDS011;9657;45.940;12.840;2023-09-08T06:25:38;4.70;;;4.25;;
19049;SDS011;9657;45.940;12.840;2023-09-08T06:28:05;4.82;;;4.30;;
19049;SDS011;9657;45.940;12.840;2023-09-08T06:30:33;4.60;;;4.20;;
19049;SDS011;9657;45.940;12.840;2023-09-08T06:33:00;5.32;;;4.50;;
19049;SDS011;9657;45.940;12.840;2023-09-08T06:35:29;5.00;;;4.20;;
19049;SDS011;9657;45.940;12.840;2023-09-08T06:37:56;6.13;;;4.78;;
19049;SDS011;9657;45.940;12.840;2023-09-08T06:40:24;6.30;;;4.53;;
19049;SDS011;9657;45.940;12.840;2023-09-08T06:42:51;5.07;;;4.35;;
19049;SDS011;9657;45.940;12.840;2023-09-08T06:45:18;5.45;;;4.75;;
19049;SDS011;9657;45.940;12.840;2023-09-08T06:47:45;4.93;;;4.18;;
19049;SDS011;9657;45.940;12.840;2023-09-08T06:50:12;6.35;;;4.60;;
19049;SDS011;9657;45.940;12.840;2023-09-08T06:52:40;5.43;;;4.70;;
19049;SDS011;9657;45.940;12.840;2023-09-08T06:55:07;7.20;;;4.70;;
19049;SDS011;9657;45.940;12.840;2023-09-08T06:57:34;5.15;;;4.15;;
19049;SDS011;9657;45.940;12.840;2023-09-08T07:00:02;6.15;;;4.47;;
19049;SDS011;9657;45.940;12.840;2023-09-08T07:02:32;4.53;;;4.10;;
19049;SDS011;9657;45.940;12.840;2023-09-08T07:04:59;5.82;;;4.20;;
19049;SDS011;9657;45.940;12.840;2023-09-08T07:07:31;5.68;;;4.78;;
19049;SDS011;9657;45.940;12.840;2023-09-08T07:10:00;5.10;;;4.60;;
19049;SDS011;9657;45.940;12.840;2023-09-08T07:12:27;7.82;;;4.95;;
19049;SDS011;9657;45.940;12.840;2023-09-08T07:14:54;4.90;;;4.50;;
19049;SDS011;9657;45.940;12.840;2023-09-08T07:17:21;5.47;;;4.30;;
19049;SDS011;9657;45.940;12.840;2023-09-08T07:19:48;5.38;;;4.88;;
19049;SDS011;9657;45.940;12.840;2023-09-08T07:22:16;4.43;;;4.03;;
19049;SDS011;9657;45.940;12.840;2023-09-08T07:24:43;6.70;;;4.65;;
19049;SDS011;9657;45.940;12.840;2023-09-08T07:27:12;4.38;;;3.97;;
19049;SDS011;9657;45.940;12.840;2023-09-08T07:29:40;4.65;;;4.18;;
19049;SDS011;9657;45.940;12.840;2023-09-08T07:32:07;6.43;;;4.53;;
19049;SDS011;9657;45.940;12.840;2023-09-08T07:34:34;6.32;;;4.55;;
19049;SDS011;9657;45.940;12.840;2023-09-08T07:37:01;5.45;;;4.80;;
19049;SDS011;9657;45.940;12.840;2023-09-08T07:39:28;4.70;;;3.88;;
19049;SDS011;9657;45.940;12.840;2023-09-08T07:41:56;4.75;;;4.13;;
19049;SDS011;9657;45.940;12.840;2023-09-08T07:44:25;6.68;;;4.38;;
19049;SDS011;9657;45.940;12.840;2023-09-08T07:46:52;5.28;;;4.22;;
19049;SDS011;9657;45.940;12.840;2023-09-08T07:49:21;5.05;;;4.57;;
19049;SDS011;9657;45.940;12.840;2023-09-08T07:51:48;4.45;;;3.80;;
19049;SDS011;9657;45.940;12.840;2023-09-08T07:54:15;6.00;;;4.40;;
19049;SDS011;9657;45.940;12.840;2023-09-08T07:56:42;4.75;;;4.00;;
19049;SDS011;9657;45.940;12.840;2023-09-08T07:59:09;4.95;;;4.22;;
19049;SDS011;9657;45.940;12.840;2023-09-08T08:01:38;5.45;;;4.55;;
19049;SDS011;9657;45.940;12.840;2023-09-08T08:04:05;4.25;;;3.80;;
19049;SDS011;9657;45.940;12.840;2023-09-08T08:06:32;4.88;;;3.92;;
19049;SDS011;9657;45.940;12.840;2023-09-08T08:08:59;5.63;;;4.47;;
19049;SDS011;9657;45.940;12.840;2023-09-08T08:11:26;4.63;;;4.22;;
19049;SDS011;9657;45.940;12.840;2023-09-08T08:13:53;5.35;;;4.07;;
19049;SDS011;9657;45.940;12.840;2023-09-08T08:16:21;5.43;;;4.00;;
19049;SDS011;9657;45.940;12.840;2023-09-08T08:18:50;4.93;;;4.20;;
19049;SDS011;9657;45.940;12.840;2023-09-08T08:21:18;4.82;;;4.25;;
19049;SDS011;9657;45.940;12.840;2023-09-08T08:23:47;5.10;;;4.55;;
19049;SDS011;9657;45.940;12.840;2023-09-08T08:26:14;4.10;;;3.72;;
19049;SDS011;9657;45.940;12.840;2023-09-08T08:28:43;4.82;;;4.15;;
19049;SDS011;9657;45.940;12.840;2023-09-08T08:31:10;5.60;;;4.20;;
19049;SDS011;9657;45.940;12.840;2023-09-08T08:33:37;6.68;;;4.75;;
19049;SDS011;9657;45.940;12.840;2023-09-08T08:36:05;6.68;;;4.65;;
19049;SDS011;9657;45.940;12.840;2023-09-08T08:38:34;4.55;;;4.13;;
19049;SDS011;9657;45.940;12.840;2023-09-08T08:41:02;5.75;;;4.03;;
19049;SDS011;9657;45.940;12.840;2023-09-08T08:43:30;5.22;;;4.47;;
19049;SDS011;9657;45.940;12.840;2023-09-08T08:48:26;5.28;;;4.40;;
19049;SDS011;9657;45.940;12.840;2023-09-08T08:50:55;7.20;;;4.65;;
19049;SDS011;9657;45.940;12.840;2023-09-08T08:53:26;5.63;;;4.43;;
19049;SDS011;9657;45.940;12.840;2023-09-08T08:55:54;5.30;;;4.80;;
19049;SDS011;9657;45.940;12.840;2023-09-08T08:58:24;6.07;;;4.57;;
19049;SDS011;9657;45.940;12.840;2023-09-08T09:03:22;6.35;;;5.10;;
19049;SDS011;9657;45.940;12.840;2023-09-08T09:05:52;6.35;;;5.18;;
19049;SDS011;9657;45.940;12.840;2023-09-08T09:08:19;6.93;;;4.93;;
19049;SDS011;9657;45.940;12.840;2023-09-08T09:10:50;5.20;;;4.70;;
19049;SDS011;9657;45.940;12.840;2023-09-08T09:13:17;6.57;;;5.07;;
19049;SDS011;9657;45.940;12.840;2023-09-08T09:15:44;6.28;;;5.18;;
19049;SDS011;9657;45.940;12.840;2023-09-08T09:18:11;5.75;;;5.15;;
19049;SDS011;9657;45.940;12.840;2023-09-08T09:20:39;9.27;;;5.35;;
19049;SDS011;9657;45.940;12.840;2023-09-08T09:23:07;7.25;;;4.75;;
19049;SDS011;9657;45.940;12.840;2023-09-08T09:25:35;5.20;;;4.70;;
19049;SDS011;9657;45.940;12.840;2023-09-08T09:28:04;6.10;;;4.32;;
19049;SDS011;9657;45.940;12.840;2023-09-08T09:30:47;6.28;;;4.78;;
19049;SDS011;9657;45.940;12.840;2023-09-08T09:33:16;5.05;;;4.32;;
19049;SDS011;9657;45.940;12.840;2023-09-08T09:35:44;4.63;;;4.13;;
19049;SDS011;9657;45.940;12.840;2023-09-08T09:38:12;5.32;;;4.82;;
19049;SDS011;9657;45.940;12.840;2023-09-08T09:40:40;4.97;;;4.47;;
19049;SDS011;9657;45.940;12.840;2023-09-08T09:43:09;5.82;;;5.18;;
19049;SDS011;9657;45.940;12.840;2023-09-08T09:45:37;4.90;;;4.50;;
19049;SDS011;9657;45.940;12.840;2023-09-08T09:48:06;5.70;;;5.07;;
19049;SDS011;9657;45.940;12.840;2023-09-08T09:50:35;5.47;;;4.68;;
19049;SDS011;9657;45.940;12.840;2023-09-08T09:53:07;5.13;;;4.63;;
19049;SDS011;9657;45.940;12.840;2023-09-08T09:55:36;5.10;;;4.45;;
19049;SDS011;9657;45.940;12.840;2023-09-08T09:58:04;5.18;;;4.55;;
19049;SDS011;9657;45.940;12.840;2023-09-08T10:00:33;5.22;;;4.68;;
19049;SDS011;9657;45.940;12.840;2023-09-08T10:03:02;5.78;;;5.05;;
19049;SDS011;9657;45.940;12.840;2023-09-08T10:05:30;5.07;;;4.55;;
19049;SDS011;9657;45.940;12.840;2023-09-08T10:07:57;5.15;;;4.57;;
19049;SDS011;9657;45.940;12.840;2023-09-08T10:10:26;6.78;;;4.90;;
19049;SDS011;9657;45.940;12.840;2023-09-08T10:12:57;5.13;;;4.47;;
19049;SDS011;9657;45.940;12.840;2023-09-08T10:15:27;4.72;;;4.18;;
19049;SDS011;9657;45.940;12.840;2023-09-08T10:17:57;5.32;;;4.80;;
19049;SDS011;9657;45.940;12.840;2023-09-08T10:20:26;5.00;;;4.53;;
19049;SDS011;9657;45.940;12.840;2023-09-08T10:22:55;5.50;;;4.55;;
19049;SDS011;9657;45.940;12.840;2023-09-08T10:25:29;4.93;;;3.72;;
19049;SDS011;9657;45.940;12.840;2023-09-08T10:28:01;5.30;;;4.80;;
19049;SDS011;9657;45.940;12.840;2023-09-08T10:30:30;5.07;;;4.57;;
19049;SDS011;9657;45.940;12.840;2023-09-08T10:32:59;5.28;;;4.78;;
19049;SDS011;9657;45.940;12.840;2023-09-08T10:35:27;5.85;;;4.60;;
19049;SDS011;9657;45.940;12.840;2023-09-08T10:40:50;6.05;;;4.88;;
19049;SDS011;9657;45.940;12.840;2023-09-08T10:43:17;4.68;;;4.22;;
19049;SDS011;9657;45.940;12.840;2023-09-08T10:45:45;4.65;;;4.18;;
19049;SDS011;9657;45.940;12.840;2023-09-08T10:48:14;8.02;;;4.57;;
19049;SDS011;9657;45.940;12.840;2023-09-08T10:50:41;7.35;;;4.60;;
19049;SDS011;9657;45.940;12.840;2023-09-08T10:53:13;5.57;;;4.68;;
19049;SDS011;9657;45.940;12.840;2023-09-08T10:55:42;5.07;;;4.57;;
19049;SDS011;9657;45.940;12.840;2023-09-08T10:58:19;10.20;;;4.32;;
19049;SDS011;9657;45.940;12.840;2023-09-08T11:00:47;6.43;;;4.20;;
19049;SDS011;9657;45.940;12.840;2023-09-08T11:03:26;4.75;;;4.22;;
19049;SDS011;9657;45.940;12.840;2023-09-08T11:05:55;6.45;;;4.03;;
19049;SDS011;9657;45.940;12.840;2023-09-08T11:08:23;5.63;;;4.45;;
19049;SDS011;9657;45.940;12.840;2023-09-08T11:10:51;6.20;;;4.50;;
19049;SDS011;9657;45.940;12.840;2023-09-08T11:13:18;5.50;;;4.28;;
19049;SDS011;9657;45.940;12.840;2023-09-08T11:15:45;5.40;;;4.30;;
19049;SDS011;9657;45.940;12.840;2023-09-08T11:18:12;4.60;;;4.20;;
19049;SDS011;9657;45.940;12.840;2023-09-08T11:20:40;4.22;;;3.90;;
19049;SDS011;9657;45.940;12.840;2023-09-08T11:23:09;4.72;;;4.10;;
19049;SDS011;9657;45.940;12.840;2023-09-08T11:25:36;4.65;;;4.22;;
19049;SDS011;9657;45.940;12.840;2023-09-08T11:28:04;5.18;;;3.95;;
19049;SDS011;9657;45.940;12.840;2023-09-08T11:30:33;5.32;;;4.20;;
19049;SDS011;9657;45.940;12.840;2023-09-08T11:33:01;4.18;;;3.78;;
19049;SDS011;9657;45.940;12.840;2023-09-08T11:35:28;5.80;;;4.20;;
19049;SDS011;9657;45.940;12.840;2023-09-08T11:38:02;5.03;;;4.53;;
19049;SDS011;9657;45.940;12.840;2023-09-08T11:40:30;5.38;;;3.85;;
19049;SDS011;9657;45.940;12.840;2023-09-08T11:42:57;4.60;;;4.20;;
19049;SDS011;9657;45.940;12.840;2023-09-08T11:45:25;4.82;;;4.28;;
19049;SDS011;9657;45.940;12.840;2023-09-08T11:47:53;4.40;;;4.00;;
19049;SDS011;9657;45.940;12.840;2023-09-08T11:50:21;4.45;;;3.78;;
19049;SDS011;9657;45.940;12.840;2023-09-08T11:52:49;4.18;;;3.80;;
19049;SDS011;9657;45.940;12.840;2023-09-08T11:55:19;4.50;;;3.80;;
19049;SDS011;9657;45.940;12.840;2023-09-08T11:57:48;4.32;;;3.92;;
19049;SDS011;9657;45.940;12.840;2023-09-08T12:00:19;3.83;;;3.42;;
19049;SDS011;9657;45.940;12.840;2023-09-08T12:02:48;4.20;;;3.90;;
19049;SDS011;9657;45.940;12.840;2023-09-08T12:05:20;4.63;;;3.83;;
19049;SDS011;9657;45.940;12.840;2023-09-08T12:07:49;4.57;;;3.92;;
19049;SDS011;9657;45.940;12.840;2023-09-08T12:10:16;3.85;;;3.45;;
19049;SDS011;9657;45.940;12.840;2023-09-08T12:12:46;4.45;;;3.70;;
19049;SDS011;9657;45.940;12.840;2023-09-08T12:15:29;4.10;;;3.70;;
19049;SDS011;9657;45.940;12.840;2023-09-08T12:17:58;4.47;;;4.05;;
19049;SDS011;9657;45.940;12.840;2023-09-08T12:20:25;3.97;;;3.65;;
19049;SDS011;9657;45.940;12.840;2023-09-08T12:22:52;4.03;;;3.65;;
19049;SDS011;9657;45.940;12.840;2023-09-08T12:25:21;4.43;;;3.85;;
19049;SDS011;9657;45.940;12.840;2023-09-08T12:27:49;3.72;;;3.42;;
19049;SDS011;9657;45.940;12.840;2023-09-08T12:30:17;3.83;;;3.35;;
19049;SDS011;9657;45.940;12.840;2023-09-08T12:32:45;4.50;;;4.07;;
19049;SDS011;9657;45.940;12.840;2023-09-08T12:35:19;4.10;;;3.70;;
19049;SDS011;9657;45.940;12.840;2023-09-08T12:37:52;4.55;;;4.15;;
19049;SDS011;9657;45.940;12.840;2023-09-08T12:40:24;4.22;;;3.83;;
19049;SDS011;9657;45.940;12.840;2023-09-08T12:42:51;3.85;;;3.53;;
19049;SDS011;9657;45.940;12.840;2023-09-08T12:45:18;3.63;;;3.33;;
19049;SDS011;9657;45.940;12.840;2023-09-08T12:47:46;3.80;;;3.42;;
19049;SDS011;9657;45.940;12.840;2023-09-08T12:50:13;4.10;;;3.70;;
19049;SDS011;9657;45.940;12.840;2023-09-08T12:52:40;3.97;;;3.45;;
19049;SDS011;9657;45.940;12.840;2023-09-08T12:55:07;3.80;;;3.47;;
19049;SDS011;9657;45.940;12.840;2023-09-08T12:57:36;4.50;;;4.10;;
19049;SDS011;9657;45.940;12.840;2023-09-08T13:00:04;4.45;;;3.55;;
19049;SDS011;9657;45.940;12.840;2023-09-08T13:02:32;3.75;;;3.45;;
19049;SDS011;9657;45.940;12.840;2023-09-08T13:04:59;4.32;;;3.30;;
19049;SDS011;9657;45.940;12.840;2023-09-08T13:07:26;3.70;;;3.40;;
19049;SDS011;9657;45.940;12.840;2023-09-08T13:09:54;3.70;;;3.40;;
19049;SDS011;9657;45.940;12.840;2023-09-08T13:12:21;3.75;;;3.40;;
19049;SDS011;9657;45.940;12.840;2023-09-08T13:14:49;4.30;;;3.90;;
19049;SDS011;9657;45.940;12.840;2023-09-08T13:17:16;3.92;;;3.53;;
19049;SDS011;9657;45.940;12.840;2023-09-08T13:19:44;4.65;;;4.22;;
19049;SDS011;9657;45.940;12.840;2023-09-08T13:22:11;3.80;;;3.50;;
19049;SDS011;9657;45.940;12.840;2023-09-08T13:24:39;3.58;;;3.28;;
19049;SDS011;9657;45.940;12.840;2023-09-08T13:27:06;3.78;;;3.47;;
19049;SDS011;9657;45.940;12.840;2023-09-08T13:29:33;4.40;;;4.00;;
19049;SDS011;9657;45.940;12.840;2023-09-08T13:32:03;4.07;;;3.75;;
19049;SDS011;9657;45.940;12.840;2023-09-08T13:34:31;3.55;;;3.25;;
19049;SDS011;9657;45.940;12.840;2023-09-08T13:36:59;4.35;;;3.95;;
19049;SDS011;9657;45.940;12.840;2023-09-08T13:39:27;3.80;;;3.50;;
19049;SDS011;9657;45.940;12.840;2023-09-08T13:41:54;3.92;;;3.63;;
19049;SDS011;9657;45.940;12.840;2023-09-08T13:44:23;3.90;;;3.58;;
19049;SDS011;9657;45.940;12.840;2023-09-08T13:46:50;4.72;;;3.30;;
19049;SDS011;9657;45.940;12.840;2023-09-08T13:49:20;3.83;;;3.30;;
19049;SDS011;9657;45.940;12.840;2023-09-08T13:51:47;4.05;;;3.65;;
19049;SDS011;9657;45.940;12.840;2023-09-08T13:54:16;4.07;;;3.78;;
19049;SDS011;9657;45.940;12.840;2023-09-08T13:56:43;3.67;;;3.38;;
19049;SDS011;9657;45.940;12.840;2023-09-08T13:59:10;3.45;;;3.15;;
19049;SDS011;9657;45.940;12.840;2023-09-08T14:01:38;4.35;;;3.47;;
19049;SDS011;9657;45.940;12.840;2023-09-08T14:04:06;3.88;;;3.50;;
19049;SDS011;9657;45.940;12.840;2023-09-08T14:06:34;3.85;;;3.55;;
19049;SDS011;9657;45.940;12.840;2023-09-08T14:09:01;3.85;;;3.45;;
19049;SDS011;9657;45.940;12.840;2023-09-08T14:11:29;3.80;;;3.50;;
19049;SDS011;9657;45.940;12.840;2023-09-08T14:13:56;3.75;;;3.45;;
19049;SDS011;9657;45.940;12.840;2023-09-08T14:16:23;4.30;;;3.90;;
19049;SDS011;9657;45.940;12.840;2023-09-08T14:18:50;5.30;;;3.65;;
19049;SDS011;9657;45.940;12.840;2023-09-08T14:21:18;3.70;;;3.40;;
19049;SDS011;9657;45.940;12.840;2023-09-08T14:23:46;3.65;;;3.35;;
19049;SDS011;9657;45.940;12.840;2023-09-08T14:26:14;5.03;;;3.33;;
19049;SDS011;9657;45.940;12.840;2023-09-08T14:28:41;3.05;;;2.80;;
19049;SDS011;9657;45.940;12.840;2023-09-08T14:31:09;4.10;;;3.70;;
19049;SDS011;9657;45.940;12.840;2023-09-08T14:33:36;3.75;;;3.45;;
19049;SDS011;9657;45.940;12.840;2023-09-08T14:36:03;3.60;;;3.30;;
19049;SDS011;9657;45.940;12.840;2023-09-08T14:38:30;3.28;;;2.97;;
19049;SDS011;9657;45.940;12.840;2023-09-08T14:40:59;4.38;;;3.97;;
19049;SDS011;9657;45.940;12.840;2023-09-08T14:43:28;3.30;;;3.00;;
19049;SDS011;9657;45.940;12.840;2023-09-08T14:45:57;3.17;;;2.97;;
19049;SDS011;9657;45.940;12.840;2023-09-08T14:48:24;3.55;;;3.25;;
19049;SDS011;9657;45.940;12.840;2023-09-08T14:50:51;3.28;;;3.08;;
19049;SDS011;9657;45.940;12.840;2023-09-08T14:53:18;3.80;;;3.50;;
19049;SDS011;9657;45.940;12.840;2023-09-08T14:55:45;3.60;;;3.30;;
19049;SDS011;9657;45.940;12.840;2023-09-08T14:58:15;3.55;;;3.25;;
19049;SDS011;9657;45.940;12.840;2023-09-08T15:00:42;3.65;;;3.35;;
19049;SDS011;9657;45.940;12.840;2023-09-08T15:03:10;3.60;;;3.30;;
19049;SDS011;9657;45.940;12.840;2023-09-08T15:05:38;3.97;;;3.50;;